createdAt,value
2018-01-18T00:02:24.578Z,87.60
2018-01-18T00:04:52.496Z,87.50
2018-01-18T00:07:20.249Z,87.00
2018-01-18T00:09:49.194Z,86.70
2018-01-18T00:12:16.993Z,86.60
2018-01-18T00:14:45.472Z,86.50
2018-01-18T00:17:13.838Z,86.70
2018-01-18T00:19:41.542Z,86.40
2018-01-18T00:36:17.882Z,84.00
2018-01-18T00:38:45.624Z,86.20
2018-01-18T00:41:13.987Z,86.90
2018-01-18T00:43:42.970Z,86.40
2018-01-18T00:46:10.731Z,86.60
2018-01-18T00:48:38.593Z,86.50
2018-01-18T00:51:08.686Z,86.40
2018-01-18T00:53:36.478Z,85.80
2018-01-18T00:56:06.334Z,84.90
2018-01-18T00:58:34.052Z,84.00
2018-01-18T01:01:01.770Z,83.40
2018-01-18T01:03:30.398Z,82.80
2018-01-18T01:05:58.594Z,81.90
2018-01-18T01:08:26.351Z,82.00
2018-01-18T01:10:57.166Z,80.80
2018-01-18T01:13:25.724Z,79.90
2018-01-18T01:15:54.215Z,80.40
2018-01-18T01:18:23.201Z,81.00
2018-01-18T01:20:50.924Z,80.80
2018-01-18T01:23:18.733Z,82.10
2018-01-18T01:25:48.488Z,82.20
2018-01-18T01:28:16.182Z,82.20
2018-01-18T01:30:43.927Z,82.30
2018-01-18T01:33:12.840Z,82.70
2018-01-18T01:35:40.569Z,82.10
2018-01-18T01:38:08.840Z,81.50
2018-01-18T01:40:37.087Z,80.90
2018-01-18T01:43:04.779Z,80.70
2018-01-18T01:45:32.563Z,80.70
2018-01-18T01:48:01.232Z,80.40
2018-01-18T01:53:04.115Z,80.80
2018-01-18T01:55:33.212Z,81.10
2018-01-18T01:58:00.915Z,81.10
2018-01-18T02:00:30.394Z,81.30
2018-01-18T02:02:59.930Z,81.70
2018-01-18T02:05:27.629Z,81.60
2018-01-18T02:07:57.273Z,81.50
2018-01-18T02:10:25.039Z,81.50
2018-01-18T02:12:52.852Z,81.10
2018-01-18T02:15:23.727Z,80.10
2018-01-18T02:17:51.484Z,80.00
2018-01-18T02:20:19.242Z,79.60
2018-01-18T02:22:46.930Z,79.80
2018-01-18T02:25:14.730Z,79.70
2018-01-18T02:27:43.239Z,79.70
2018-01-18T02:30:11.024Z,79.70
2018-01-18T02:32:38.771Z,80.10
2018-01-18T02:35:06.668Z,80.00
2018-01-18T02:37:34.533Z,79.20
2018-01-18T02:40:02.282Z,79.00
2018-01-18T02:42:30.077Z,79.20
2018-01-18T02:44:59.456Z,80.00
2018-01-18T02:47:27.149Z,80.00
2018-01-18T02:49:55.792Z,80.70
2018-01-18T02:52:24.406Z,80.00
2018-01-18T02:54:52.115Z,80.00
2018-01-18T02:57:19.846Z,80.30
2018-01-18T02:59:48.305Z,78.80
2018-01-18T03:02:16.058Z,78.70
2018-01-18T03:04:43.816Z,77.70
2018-01-18T03:07:11.522Z,77.00
2018-01-18T03:09:39.273Z,76.80
2018-01-18T03:12:07.150Z,75.40
2018-01-18T03:14:34.859Z,75.10
2018-01-18T03:17:02.674Z,74.40
2018-01-18T03:19:30.346Z,74.40
2018-01-18T03:21:58.830Z,74.20
2018-01-18T03:24:26.587Z,74.20
2018-01-18T03:26:54.316Z,74.40
2018-01-18T03:29:24.982Z,75.30
2018-01-18T03:31:53.461Z,75.20
2018-01-18T03:34:21.225Z,75.20
2018-01-18T03:36:49.674Z,75.20
2018-01-18T03:39:17.413Z,75.10
2018-01-18T03:41:45.163Z,75.30
2018-01-18T03:44:12.896Z,75.30
2018-01-18T03:46:40.594Z,75.50
2018-01-18T03:49:08.340Z,75.00
2018-01-18T03:51:36.015Z,75.00
2018-01-18T03:54:03.753Z,74.70
2018-01-18T03:56:32.415Z,73.50
2018-01-18T03:59:00.128Z,72.30
2018-01-18T04:01:27.922Z,71.70
2018-01-18T04:03:57.453Z,70.50
2018-01-18T04:06:25.365Z,70.50
2018-01-18T04:08:53.155Z,69.80
2018-01-18T04:11:20.971Z,69.50
2018-01-18T04:13:48.683Z,69.50
2018-01-18T04:16:17.518Z,69.70
2018-01-18T04:18:45.306Z,69.70
2018-01-18T04:21:13.174Z,69.90
2018-01-18T04:23:40.939Z,70.30
2018-01-18T04:26:08.654Z,70.60
2018-01-18T04:28:36.378Z,70.00
2018-01-18T04:33:37.148Z,69.40
2018-01-18T04:36:04.883Z,69.50
2018-01-18T04:38:32.601Z,69.20
2018-01-18T04:41:00.340Z,69.40
2018-01-18T04:43:28.058Z,69.20
2018-01-18T04:45:55.804Z,69.00
2018-01-18T04:48:23.551Z,68.90
2018-01-18T04:50:51.308Z,69.40
2018-01-18T04:53:19.771Z,69.40
2018-01-18T04:55:48.393Z,69.80
2018-01-18T04:58:16.086Z,69.80
2018-01-18T05:00:43.798Z,70.10
2018-01-18T05:03:11.516Z,70.20
2018-01-18T05:05:39.278Z,70.50
2018-01-18T05:08:07.010Z,71.20
2018-01-18T05:10:34.760Z,71.40
2018-01-18T05:13:02.503Z,71.70
2018-01-18T05:15:30.997Z,72.10
2018-01-18T05:17:58.684Z,72.00
2018-01-18T05:20:26.395Z,72.10
2018-01-18T05:22:54.946Z,72.50
2018-01-18T05:25:23.501Z,71.90
2018-01-18T05:27:51.368Z,71.90
2018-01-18T05:30:19.082Z,72.10
2018-01-18T05:32:46.931Z,71.80
2018-01-18T05:35:15.422Z,69.80
2018-01-18T05:37:43.192Z,69.80
2018-01-18T05:40:10.894Z,68.50
2018-01-18T05:42:38.633Z,63.80
2018-01-18T05:45:06.328Z,62.90
2018-01-18T05:47:34.090Z,62.30
2018-01-18T05:50:01.803Z,62.70
2018-01-18T05:52:29.737Z,62.60
2018-01-18T05:54:57.434Z,62.50
2018-01-18T05:57:25.992Z,62.80
2018-01-18T05:59:53.749Z,62.10
2018-01-18T06:02:21.477Z,62.20
2018-01-18T06:04:49.252Z,62.30
2018-01-18T06:07:16.947Z,62.10
2018-01-18T06:09:44.658Z,62.00
2018-01-18T06:12:12.346Z,62.40
2018-01-18T06:14:40.054Z,62.70
2018-01-18T06:17:08.558Z,63.40
2018-01-18T06:19:36.233Z,63.40
2018-01-18T06:22:03.946Z,63.10
2018-01-18T06:24:31.698Z,63.40
2018-01-18T06:26:59.376Z,63.40
2018-01-18T06:29:27.058Z,63.30
2018-01-18T06:31:55.565Z,62.90
2018-01-18T06:34:23.309Z,62.90
2018-01-18T06:36:51.958Z,62.50
2018-01-18T06:39:19.769Z,62.20
2018-01-18T06:41:47.537Z,61.80
2018-01-18T06:44:15.333Z,61.70
2018-01-18T06:46:43.044Z,62.00
2018-01-18T06:49:11.473Z,62.80
2018-01-18T06:51:39.275Z,62.80
2018-01-18T06:54:06.973Z,63.50
2018-01-18T06:56:34.697Z,64.20
2018-01-18T06:59:03.342Z,67.40
2018-01-18T07:01:31.029Z,67.30
2018-01-18T07:03:59.510Z,69.40
2018-01-18T07:06:28.011Z,69.90
2018-01-18T07:08:56.643Z,70.10
2018-01-18T07:11:24.380Z,70.10
2018-01-18T07:13:52.142Z,70.30
2018-01-18T07:16:20.834Z,70.40
2018-01-18T07:18:48.567Z,70.50
2018-01-18T07:21:17.262Z,71.50
2018-01-18T07:23:46.075Z,71.50
2018-01-18T07:26:13.848Z,71.70
2018-01-18T07:28:41.665Z,72.40
2018-01-18T07:31:10.402Z,73.30
2018-01-18T07:33:38.229Z,73.30
2018-01-18T07:36:06.010Z,73.50
2018-01-18T07:38:33.722Z,74.30
2018-01-18T07:41:01.524Z,74.20
2018-01-18T07:43:29.461Z,74.70
2018-01-18T07:45:57.291Z,75.00
2018-01-18T07:48:24.964Z,75.10
2018-01-18T07:50:52.725Z,75.20
2018-01-18T07:53:20.536Z,74.90
2018-01-18T07:55:48.476Z,75.10
2018-01-18T07:58:16.178Z,74.70
2018-01-18T08:00:43.906Z,74.50
2018-01-18T08:03:17.318Z,74.70
2018-01-18T08:05:45.072Z,74.50
2018-01-18T08:08:12.805Z,74.40
2018-01-18T08:10:40.546Z,74.60
2018-01-18T08:13:08.262Z,74.20
2018-01-18T08:15:36.023Z,74.20
2018-01-18T08:18:04.582Z,74.50
2018-01-18T08:20:32.337Z,74.10
2018-01-18T08:23:00.058Z,74.20
2018-01-18T08:25:27.789Z,74.30
2018-01-18T08:27:55.484Z,74.70
2018-01-18T08:30:23.217Z,74.60
2018-01-18T08:32:51.781Z,75.10
2018-01-18T08:35:19.462Z,75.10
2018-01-18T08:37:47.146Z,75.50
2018-01-18T08:40:14.898Z,75.70
2018-01-18T08:42:43.364Z,76.50
2018-01-18T08:45:11.885Z,76.90
2018-01-18T08:47:39.589Z,76.90
2018-01-18T08:50:07.332Z,77.00
2018-01-18T08:52:35.088Z,76.80
2018-01-18T08:55:02.863Z,77.20
2018-01-18T08:57:30.644Z,77.10
2018-01-18T08:59:58.383Z,77.40
2018-01-18T09:02:26.157Z,77.20
2018-01-18T09:04:53.923Z,77.10
2018-01-18T09:07:21.630Z,76.70
2018-01-18T09:09:49.338Z,76.60
2018-01-18T09:12:17.142Z,76.40
2018-01-18T09:14:45.643Z,76.00
2018-01-18T09:17:13.424Z,76.00
2018-01-18T09:19:41.151Z,75.70
2018-01-18T09:22:09.702Z,75.40
2018-01-18T09:24:43.604Z,75.30
2018-01-18T09:27:11.355Z,75.20
2018-01-18T09:29:39.030Z,74.70
2018-01-18T09:32:06.749Z,74.60
2018-01-18T09:34:34.453Z,74.70
2018-01-18T09:37:02.172Z,74.70
2018-01-18T09:39:29.887Z,74.80
2018-01-18T09:41:57.602Z,75.00
2018-01-18T09:44:25.405Z,75.10
2018-01-18T09:46:53.150Z,75.50
2018-01-18T09:49:21.018Z,75.70
2018-01-18T09:51:48.738Z,75.70
2018-01-18T09:54:16.421Z,76.00
2018-01-18T09:56:44.183Z,76.00
2018-01-18T09:59:11.851Z,75.90
2018-01-18T10:01:39.593Z,75.50
2018-01-18T10:04:07.273Z,75.70
2018-01-18T10:06:34.992Z,75.70
2018-01-18T10:09:02.728Z,75.30
2018-01-18T10:11:30.484Z,75.40
2018-01-18T10:13:58.201Z,75.40
2018-01-18T10:16:26.651Z,74.70
2018-01-18T10:18:54.474Z,74.60
2018-01-18T10:21:22.221Z,74.60
2018-01-18T10:23:49.901Z,74.30
2018-01-18T10:26:17.648Z,74.30
2018-01-18T10:28:45.340Z,73.20
2018-01-18T10:31:13.304Z,73.30
2018-01-18T10:33:41.018Z,72.30
2018-01-18T10:36:09.470Z,72.20
2018-01-18T10:38:37.216Z,72.20
2018-01-18T10:41:04.997Z,71.70
2018-01-18T10:43:32.828Z,71.20
2018-01-18T10:46:00.550Z,70.20
2018-01-18T10:48:28.987Z,70.00
2018-01-18T10:50:56.657Z,70.00
2018-01-18T10:53:24.415Z,70.40
2018-01-18T10:55:52.090Z,70.20
2018-01-18T10:58:19.960Z,69.90
2018-01-18T11:00:47.842Z,70.40
2018-01-18T11:03:15.524Z,69.80
2018-01-18T11:05:43.350Z,70.00
2018-01-18T11:08:11.424Z,69.00
2018-01-18T11:10:39.186Z,69.70
2018-01-18T11:13:06.947Z,69.50
2018-01-18T11:15:35.018Z,69.20
2018-01-18T11:18:02.750Z,69.10
2018-01-18T11:20:30.618Z,69.70
2018-01-18T11:22:58.406Z,70.60
2018-01-18T11:25:26.348Z,70.30
2018-01-18T11:27:54.356Z,70.30
2018-01-18T11:30:22.282Z,70.40
2018-01-18T11:32:49.970Z,70.30
2018-01-18T11:35:17.694Z,70.20
2018-01-18T11:37:45.360Z,70.70
2018-01-18T11:40:13.269Z,70.60
2018-01-18T11:42:40.953Z,71.10
2018-01-18T11:45:08.673Z,71.50
2018-01-18T11:47:36.446Z,71.90
2018-01-18T11:50:04.323Z,72.40
2018-01-18T11:52:32.177Z,72.50
2018-01-18T11:55:01.552Z,71.80
2018-01-18T11:57:29.345Z,71.70
2018-01-18T11:59:57.023Z,71.50
2018-01-18T12:02:24.739Z,72.10
2018-01-18T12:04:52.535Z,71.20
2018-01-18T12:07:20.404Z,70.40
2018-01-18T12:09:48.338Z,70.50
2018-01-18T12:12:16.130Z,70.20
2018-01-18T12:14:43.827Z,70.00
2018-01-18T12:17:11.866Z,69.10
2018-01-18T12:19:39.542Z,69.50
2018-01-18T12:22:07.397Z,68.90
2018-01-18T12:24:35.161Z,68.50
2018-01-18T12:27:02.857Z,69.10
2018-01-18T12:29:30.652Z,68.50
2018-01-18T12:31:58.389Z,68.90
2018-01-18T12:34:26.106Z,69.10
2018-01-18T12:36:54.043Z,69.20
2018-01-18T12:39:21.847Z,69.80
2018-01-18T12:41:49.775Z,70.00
2018-01-18T12:44:18.466Z,68.50
2018-01-18T12:46:46.466Z,68.50
2018-01-18T12:49:14.973Z,67.50
2018-01-18T12:51:42.810Z,68.00
2018-01-18T12:54:10.665Z,67.20
2018-01-18T12:56:38.404Z,68.00
2018-01-18T12:59:06.189Z,68.70
2018-01-18T13:01:33.931Z,69.70
2018-01-18T13:04:01.701Z,69.00
2018-01-18T13:06:29.590Z,68.90
2018-01-18T13:08:57.288Z,68.90
2018-01-18T13:11:25.034Z,68.20
2018-01-18T13:13:53.664Z,67.20
2018-01-18T13:16:21.477Z,67.20
2018-01-18T13:18:49.394Z,67.30
2018-01-18T13:21:17.186Z,68.20
2018-01-18T13:23:45.128Z,66.20
2018-01-18T13:26:12.943Z,65.60
2018-01-18T13:28:40.642Z,63.50
2018-01-18T13:31:08.647Z,63.20
2018-01-18T13:33:36.545Z,64.70
2018-01-18T13:36:05.783Z,64.00
2018-01-18T13:38:34.023Z,64.00
2018-01-18T13:41:01.826Z,63.50
2018-01-18T13:43:29.515Z,63.90
2018-01-18T13:45:57.355Z,64.40
2018-01-18T13:48:25.081Z,65.20
2018-01-18T13:50:52.770Z,64.80
2018-01-18T13:53:20.468Z,64.90
2018-01-18T13:55:48.185Z,64.10
2018-01-18T13:58:16.070Z,64.40
2018-01-18T14:00:43.761Z,63.70
2018-01-18T14:03:11.524Z,62.10
2018-01-18T14:05:39.324Z,60.10
2018-01-18T14:08:07.007Z,59.20
2018-01-18T14:10:34.714Z,57.80
2018-01-18T14:13:02.648Z,58.70
2018-01-18T14:15:30.357Z,56.40
2018-01-18T14:17:58.921Z,52.50
2018-01-18T14:20:26.781Z,52.50
2018-01-18T14:22:54.462Z,52.40
2018-01-18T14:25:22.319Z,51.30
2018-01-18T14:27:50.259Z,51.00
2018-01-18T14:30:17.997Z,50.30
2018-01-18T14:32:45.704Z,46.70
2018-01-18T14:35:13.648Z,46.60
2018-01-18T14:37:41.443Z,47.20
2018-01-18T14:40:09.326Z,49.00
2018-01-18T14:42:37.257Z,49.60
2018-01-18T14:45:05.114Z,49.10
2018-01-18T14:50:01.437Z,46.60
2018-01-18T14:52:29.169Z,46.80
2018-01-18T14:54:57.802Z,48.40
2018-01-18T14:57:25.540Z,48.40
2018-01-18T14:59:53.540Z,47.90
2018-01-18T15:02:21.346Z,48.60
2018-01-18T15:04:49.925Z,48.80
2018-01-18T15:07:17.756Z,48.80
2018-01-18T15:09:46.320Z,53.10
2018-01-18T15:12:14.097Z,52.60
2018-01-18T15:14:42.002Z,53.10
2018-01-18T15:17:09.766Z,51.20
2018-01-18T15:19:37.510Z,51.40
2018-01-18T15:22:05.466Z,49.50
2018-01-18T15:24:33.354Z,49.70
2018-01-18T15:27:01.093Z,49.70
2018-01-18T15:29:29.165Z,50.30
2018-01-18T15:31:56.970Z,51.60
2018-01-18T15:34:24.672Z,55.50
2018-01-18T15:36:52.472Z,55.70
2018-01-18T15:39:20.422Z,56.30
2018-01-18T15:41:48.235Z,56.80
2018-01-18T15:44:15.935Z,58.00
2018-01-18T15:46:43.818Z,59.20
2018-01-18T15:49:12.508Z,61.60
2018-01-18T15:51:40.381Z,61.60
2018-01-18T15:54:08.172Z,61.80
2018-01-18T15:56:36.023Z,61.70
2018-01-18T15:59:03.918Z,62.20
2018-01-18T16:01:32.357Z,63.40
2018-01-18T16:04:01.744Z,64.70
2018-01-18T16:06:29.614Z,64.70
2018-01-18T16:08:57.492Z,65.70
2018-01-18T16:11:25.188Z,66.60
2018-01-18T16:13:53.824Z,68.30
2018-01-18T16:16:21.952Z,68.30
2018-01-18T16:18:49.912Z,69.20
2018-01-18T16:21:18.088Z,68.90
2018-01-18T16:23:46.735Z,68.80
2018-01-18T16:26:14.733Z,68.80
2018-01-18T16:28:42.864Z,69.00
2018-01-18T16:31:10.555Z,69.60
2018-01-18T16:33:38.594Z,68.90
2018-01-18T16:36:06.438Z,69.70
2018-01-18T16:38:34.570Z,69.50
2018-01-18T16:41:03.073Z,69.30
2018-01-18T16:43:30.761Z,69.20
2018-01-18T16:45:58.795Z,69.50
2018-01-18T16:48:27.830Z,69.70
2018-01-18T16:50:55.534Z,69.70
2018-01-18T16:53:23.461Z,69.40
2018-01-18T16:55:51.467Z,69.20
2018-01-18T16:58:19.345Z,68.50
2018-01-18T17:00:47.914Z,68.70
2018-01-18T17:03:16.796Z,69.10
2018-01-18T17:05:44.670Z,69.00
2018-01-18T17:08:13.890Z,69.60
2018-01-18T17:10:42.398Z,70.00
2018-01-18T17:13:10.518Z,70.00
2018-01-18T17:15:38.298Z,70.70
2018-01-18T17:18:07.071Z,71.60
2018-01-18T17:20:35.149Z,71.40
2018-01-18T17:23:03.116Z,72.40
2018-01-18T17:25:31.797Z,73.70
2018-01-18T17:27:59.528Z,73.60
2018-01-18T17:30:27.503Z,73.60
2018-01-18T17:32:55.479Z,74.00
2018-01-18T17:35:23.918Z,74.20
2018-01-18T17:37:51.837Z,74.70
2018-01-18T17:40:19.983Z,75.00
2018-01-18T17:42:47.846Z,75.40
2018-01-18T17:45:15.575Z,75.90
2018-01-18T17:47:43.519Z,75.60
2018-01-18T17:50:11.577Z,75.90
2018-01-18T17:52:39.517Z,75.80
2018-01-18T17:55:07.382Z,75.50
2018-01-18T17:57:35.244Z,74.90
2018-01-18T18:00:02.997Z,74.40
2018-01-18T18:02:30.914Z,74.00
2018-01-18T18:04:59.593Z,72.80
2018-01-18T18:07:28.346Z,72.60
2018-01-18T18:09:56.373Z,72.60
2018-01-18T18:12:24.142Z,72.70
2018-01-18T18:14:51.842Z,73.00
2018-01-18T18:17:19.771Z,72.90
2018-01-18T18:19:47.471Z,72.50
2018-01-18T18:22:15.269Z,72.20
2018-01-18T18:24:42.996Z,71.80
2018-01-18T18:27:11.006Z,72.10
2018-01-18T18:29:39.141Z,72.00
2018-01-18T18:32:07.008Z,71.50
2018-01-18T18:34:35.084Z,70.60
2018-01-18T18:37:03.066Z,70.20
2018-01-18T18:39:32.382Z,69.20
2018-01-18T18:42:00.989Z,68.10
2018-01-18T18:44:28.737Z,68.00
2018-01-18T18:46:57.288Z,66.80
2018-01-18T18:49:24.981Z,66.80
2018-01-18T18:51:53.581Z,67.00
2018-01-18T18:54:21.401Z,66.90
2018-01-18T18:56:49.290Z,66.50
2018-01-18T18:59:17.982Z,66.20
2018-01-18T19:01:45.892Z,66.10
2018-01-18T19:04:13.736Z,66.20
2018-01-18T19:06:41.933Z,66.50
2018-01-18T19:09:09.902Z,66.80
2018-01-18T19:11:38.820Z,67.40
2018-01-18T19:14:06.670Z,67.40
2018-01-18T19:16:34.461Z,67.70
2018-01-18T19:19:02.933Z,68.70
2018-01-18T19:21:30.664Z,68.80
2018-01-18T19:23:58.460Z,69.30
2018-01-18T19:26:26.374Z,69.60
2018-01-18T19:28:54.471Z,70.20
2018-01-18T19:31:22.466Z,70.20
2018-01-18T19:33:50.215Z,70.20
2018-01-18T19:36:17.991Z,70.20
2018-01-18T19:38:45.931Z,70.40
2018-01-18T19:41:13.945Z,70.40
2018-01-18T19:43:42.680Z,70.30
2018-01-18T19:46:10.553Z,70.20
2018-01-18T19:48:38.824Z,70.10
2018-01-18T19:51:06.538Z,70.40
2018-01-18T19:53:35.172Z,70.90
2018-01-18T19:56:02.964Z,70.80
2018-01-18T19:58:31.277Z,71.20
2018-01-18T20:01:00.156Z,72.00
2018-01-18T20:03:27.948Z,72.20
2018-01-18T20:05:56.416Z,72.40
2018-01-18T20:08:24.869Z,72.20
2018-01-18T20:10:53.472Z,72.30
2018-01-18T20:13:21.321Z,72.20
2018-01-18T20:15:49.240Z,72.60
2018-01-18T20:18:17.105Z,73.00
2018-01-18T20:20:44.970Z,73.20
2018-01-18T20:23:12.765Z,73.60
2018-01-18T20:25:40.637Z,74.20
2018-01-18T20:28:08.569Z,74.60
2018-01-18T20:30:36.370Z,74.90
2018-01-18T20:33:04.172Z,75.00
2018-01-18T20:35:32.709Z,75.30
2018-01-18T20:38:01.261Z,75.40
2018-01-18T20:40:29.261Z,75.40
2018-01-18T20:42:57.200Z,75.30
2018-01-18T20:45:25.459Z,75.80
2018-01-18T20:47:53.693Z,75.90
2018-01-18T20:50:22.550Z,75.70
2018-01-18T20:52:50.393Z,75.60
2018-01-18T20:55:18.413Z,75.30
2018-01-18T20:57:47.379Z,75.20
2018-01-18T21:00:15.121Z,75.10
2018-01-18T21:02:42.990Z,74.60
2018-01-18T21:05:10.857Z,74.20
2018-01-18T21:07:38.613Z,74.10
2018-01-18T21:10:06.587Z,73.80
2018-01-18T21:12:34.376Z,73.40
2018-01-18T21:15:02.317Z,73.50
2018-01-18T21:17:30.125Z,73.70
2018-01-18T21:19:57.888Z,73.50
2018-01-18T21:22:27.057Z,74.30
2018-01-18T21:24:55.177Z,73.70
2018-01-18T21:27:22.889Z,73.70
2018-01-18T21:29:50.638Z,74.30
2018-01-18T21:32:28.831Z,74.40
2018-01-18T21:34:56.674Z,74.70
2018-01-18T21:37:24.445Z,75.00
2018-01-18T21:39:55.997Z,75.60
2018-01-18T21:42:24.152Z,75.60
2018-01-18T21:44:52.668Z,75.80
2018-01-18T21:47:20.441Z,75.80
2018-01-18T21:49:48.287Z,75.80
2018-01-18T21:52:16.227Z,75.90
2018-01-18T21:54:47.682Z,75.90
2018-01-18T21:57:16.151Z,75.60
2018-01-18T21:59:44.694Z,75.60
2018-01-18T22:02:12.382Z,75.60
2018-01-18T22:04:40.151Z,76.50
2018-01-18T22:07:09.133Z,76.30
2018-01-18T22:09:36.842Z,76.20
2018-01-18T22:12:04.593Z,76.30
2018-01-18T22:14:32.700Z,76.20
2018-01-18T22:17:00.438Z,76.20
2018-01-18T22:19:28.270Z,76.00
2018-01-18T22:21:56.135Z,75.90
2018-01-18T22:24:24.074Z,76.00
2018-01-18T22:26:52.737Z,75.10
2018-01-18T22:29:20.554Z,75.10
2018-01-18T22:31:48.577Z,74.50
2018-01-18T22:34:16.470Z,74.50
2018-01-18T22:36:46.033Z,74.60
2018-01-18T22:39:13.923Z,74.70
2018-01-18T22:41:41.863Z,74.40
2018-01-18T22:44:10.611Z,73.30
2018-01-18T22:46:38.741Z,73.20
2018-01-18T22:49:06.608Z,73.30
2018-01-18T22:51:34.449Z,73.50
2018-01-18T22:54:02.232Z,73.50
2018-01-18T22:56:30.141Z,73.50
2018-01-18T22:58:59.462Z,73.00
2018-01-18T23:01:27.369Z,72.90
2018-01-18T23:03:55.199Z,72.70
2018-01-18T23:06:23.763Z,71.90
2018-01-18T23:08:52.379Z,72.20
2018-01-18T23:11:20.440Z,72.00
2018-01-18T23:13:48.529Z,72.00
2018-01-18T23:16:16.322Z,72.40
2018-01-18T23:18:44.392Z,72.50
2018-01-18T23:21:12.339Z,72.60
2018-01-18T23:23:41.716Z,73.20
2018-01-18T23:26:09.492Z,73.20
2018-01-18T23:28:37.443Z,73.80
2018-01-18T23:31:05.181Z,73.50
2018-01-18T23:33:33.018Z,73.50
2018-01-18T23:36:00.744Z,73.40
2018-01-18T23:38:28.528Z,73.30
2018-01-18T23:40:56.561Z,73.10
2018-01-18T23:43:25.400Z,73.60
2018-01-18T23:45:53.455Z,73.40
2018-01-18T23:48:21.533Z,73.60
2018-01-18T23:50:51.154Z,73.90
2018-01-18T23:53:20.631Z,74.10
2018-01-18T23:55:52.131Z,73.70
2018-01-18T23:58:27.624Z,72.80
